EIN284 EIDW-EGGD
Flight info
| Callsign | EIN284 |
|---|---|
| Flight time | 0h 53m |
| Altitude | 27000 |
| Route | PESIT1N PESIT DCT BAKUR/N0417F230 N24 ADHAV P70 AGCAT Q63 BAJJA |
| Aircraft | B463/M-SDFGIRWY/LB1 |
Departure
| Time | 2026-05-06 21:06 |
|---|---|
| Airport | Dublin Airport (EIDW) |
Arrival
| Time | 2026-05-06 21:59 |
|---|---|
| Airport | Bristol Airport (EGGD) |
| Time | Latitude | Longitude | Altitude | Speed | Heading |
|---|---|---|---|---|---|
| 2026-05-06 19:57 | 53.42625 | -6.24469 | 211 ft | 0 kts | 304° |
| 2026-05-06 20:43 | 53.42623 | -6.24465 | 188 ft | 3 kts | 304° |
| 2026-05-06 20:43 | 53.42609 | -6.24427 | 219 ft | 4 kts | 306° |
| 2026-05-06 20:43 | 53.42594 | -6.24403 | 215 ft | 3 kts | 324° |
| 2026-05-06 20:44 | 53.42574 | -6.24375 | 211 ft | 4 kts | 309° |
| 2026-05-06 20:44 | 53.42566 | -6.24344 | 217 ft | 0 kts | 273° |
| 2026-05-06 20:54 | 53.42566 | -6.24349 | 211 ft | 1 kts | 264° |
| 2026-05-06 20:54 | 53.42563 | -6.24364 | 211 ft | 0 kts | 242° |
| 2026-05-06 20:54 | 53.42561 | -6.24368 | 215 ft | 1 kts | 228° |
| 2026-05-06 20:55 | 53.42544 | -6.24386 | 212 ft | 2 kts | 211° |
| 2026-05-06 20:55 | 53.42525 | -6.24406 | 211 ft | 6 kts | 213° |
| 2026-05-06 20:55 | 53.42479 | -6.24468 | 218 ft | 9 kts | 226° |
| 2026-05-06 20:55 | 53.42449 | -6.24545 | 218 ft | 7 kts | 243° |
| 2026-05-06 20:56 | 53.42429 | -6.24607 | 212 ft | 5 kts | 242° |
| 2026-05-06 20:56 | 53.42414 | -6.24656 | 212 ft | 5 kts | 244° |
| 2026-05-06 20:56 | 53.42398 | -6.24703 | 212 ft | 5 kts | 236° |
| 2026-05-06 20:56 | 53.42377 | -6.24743 | 215 ft | 5 kts | 225° |
| 2026-05-06 20:57 | 53.42354 | -6.24782 | 214 ft | 5 kts | 225° |
| 2026-05-06 20:57 | 53.42319 | -6.24842 | 212 ft | 10 kts | 225° |
| 2026-05-06 20:57 | 53.42270 | -6.24926 | 211 ft | 10 kts | 226° |
| 2026-05-06 20:57 | 53.42231 | -6.25000 | 211 ft | 7 kts | 234° |
| 2026-05-06 20:58 | 53.42210 | -6.25060 | 215 ft | 6 kts | 246° |
| 2026-05-06 20:58 | 53.42203 | -6.25153 | 210 ft | 11 kts | 275° |
| 2026-05-06 20:58 | 53.42212 | -6.25301 | 212 ft | 15 kts | 275° |
| 2026-05-06 20:58 | 53.42220 | -6.25463 | 210 ft | 12 kts | 275° |
| 2026-05-06 20:59 | 53.42226 | -6.25577 | 210 ft | 8 kts | 274° |
| 2026-05-06 20:59 | 53.42231 | -6.25665 | 210 ft | 9 kts | 275° |
| 2026-05-06 20:59 | 53.42238 | -6.25790 | 212 ft | 13 kts | 275° |
| 2026-05-06 20:59 | 53.42248 | -6.25973 | 214 ft | 18 kts | 275° |
| 2026-05-06 21:00 | 53.42262 | -6.26207 | 211 ft | 21 kts | 275° |
| 2026-05-06 21:00 | 53.42274 | -6.26432 | 211 ft | 15 kts | 275° |
| 2026-05-06 21:00 | 53.42281 | -6.26554 | 215 ft | 6 kts | 276° |
| 2026-05-06 21:00 | 53.42283 | -6.26582 | 214 ft | 0 kts | 276° |
| 2026-05-06 21:01 | 53.42284 | -6.26603 | 211 ft | 4 kts | 275° |
| 2026-05-06 21:01 | 53.42288 | -6.26687 | 211 ft | 10 kts | 274° |
| 2026-05-06 21:01 | 53.42295 | -6.26816 | 211 ft | 12 kts | 275° |
| 2026-05-06 21:01 | 53.42303 | -6.26972 | 210 ft | 15 kts | 275° |
| 2026-05-06 21:02 | 53.42313 | -6.27153 | 217 ft | 17 kts | 274° |
| 2026-05-06 21:02 | 53.42321 | -6.27357 | 210 ft | 19 kts | 272° |
| 2026-05-06 21:02 | 53.42335 | -6.27570 | 210 ft | 16 kts | 276° |
| 2026-05-06 21:02 | 53.42343 | -6.27703 | 210 ft | 7 kts | 275° |
| 2026-05-06 21:03 | 53.42348 | -6.27795 | 218 ft | 11 kts | 275° |
| 2026-05-06 21:03 | 53.42357 | -6.27953 | 212 ft | 17 kts | 276° |
| 2026-05-06 21:03 | 53.42370 | -6.28165 | 211 ft | 18 kts | 276° |
| 2026-05-06 21:03 | 53.42360 | -6.28296 | 215 ft | 9 kts | 229° |
| 2026-05-06 21:04 | 53.42318 | -6.28326 | 211 ft | 6 kts | 184° |
| 2026-05-06 21:04 | 53.42283 | -6.28303 | 219 ft | 5 kts | 139° |
| 2026-05-06 21:04 | 53.42255 | -6.28253 | 213 ft | 7 kts | 129° |
| 2026-05-06 21:04 | 53.42218 | -6.28174 | 215 ft | 11 kts | 126° |
| 2026-05-06 21:05 | 53.42185 | -6.27974 | 211 ft | 39 kts | 95° |
| 2026-05-06 21:05 | 53.42145 | -6.27180 | 209 ft | 96 kts | 95° |
| 2026-05-06 21:05 | 53.42065 | -6.25758 | 235 ft | 146 kts | 99° |
| 2026-05-06 21:05 | 53.41970 | -6.23992 | 639 ft | 158 kts | 97° |
| 2026-05-06 21:06 | 53.41881 | -6.22167 | 1359 ft | 157 kts | 98° |
| 2026-05-06 21:06 | 53.41755 | -6.20333 | 1851 ft | 166 kts | 101° |
| 2026-05-06 21:06 | 53.41608 | -6.18376 | 2400 ft | 169 kts | 98° |
| 2026-05-06 21:06 | 53.41507 | -6.16471 | 3138 ft | 160 kts | 96° |
| 2026-05-06 21:07 | 53.41418 | -6.14509 | 3516 ft | 178 kts | 97° |
| 2026-05-06 21:07 | 53.41335 | -6.12390 | 4083 ft | 190 kts | 96° |
| 2026-05-06 21:07 | 53.41202 | -6.10003 | 4392 ft | 220 kts | 97° |
| 2026-05-06 21:07 | 53.41054 | -6.07466 | 5361 ft | 208 kts | 97° |
| 2026-05-06 21:08 | 53.40865 | -6.05156 | 6389 ft | 204 kts | 102° |
| 2026-05-06 21:08 | 53.40370 | -6.02777 | 6650 ft | 230 kts | 126° |
| 2026-05-06 21:08 | 53.39184 | -6.01103 | 7488 ft | 217 kts | 163° |
| 2026-05-06 21:08 | 53.37715 | -6.00833 | 8257 ft | 220 kts | 185° |
| 2026-05-06 21:09 | 53.36068 | -6.00797 | 8389 ft | 255 kts | 176° |
| 2026-05-06 21:09 | 53.34273 | -6.00526 | 9191 ft | 255 kts | 177° |
| 2026-05-06 21:09 | 53.32616 | -6.00346 | 10718 ft | 223 kts | 179° |
| 2026-05-06 21:09 | 53.31088 | -6.00199 | 11589 ft | 225 kts | 179° |
| 2026-05-06 21:10 | 53.29401 | -6.00046 | 11505 ft | 264 kts | 180° |
| 2026-05-06 21:10 | 53.27488 | -6.00183 | 11818 ft | 279 kts | 192° |
| 2026-05-06 21:10 | 53.25728 | -6.01090 | 13175 ft | 250 kts | 206° |
| 2026-05-06 21:10 | 53.24147 | -6.02254 | 14053 ft | 251 kts | 206° |
| 2026-05-06 21:11 | 53.22447 | -6.03469 | 13947 ft | 285 kts | 206° |
| 2026-05-06 21:11 | 53.20508 | -6.04958 | 13467 ft | 323 kts | 207° |
| 2026-05-06 21:11 | 53.18479 | -6.06280 | 14509 ft | 303 kts | 198° |
| 2026-05-06 21:11 | 53.16505 | -6.06996 | 15591 ft | 287 kts | 192° |
| 2026-05-06 21:12 | 53.14579 | -6.07481 | 16612 ft | 274 kts | 191° |
| 2026-05-06 21:12 | 53.12725 | -6.07868 | 17525 ft | 265 kts | 190° |
| 2026-05-06 21:12 | 53.10867 | -6.07845 | 18086 ft | 272 kts | 173° |
| 2026-05-06 21:12 | 53.09004 | -6.07149 | 18569 ft | 275 kts | 169° |
| 2026-05-06 21:13 | 53.07144 | -6.06343 | 19049 ft | 278 kts | 167° |
| 2026-05-06 21:13 | 53.05270 | -6.05471 | 19506 ft | 281 kts | 166° |
| 2026-05-06 21:13 | 53.03386 | -6.04575 | 19940 ft | 284 kts | 166° |
| 2026-05-06 21:13 | 53.01469 | -6.03663 | 20268 ft | 291 kts | 166° |
| 2026-05-06 21:14 | 52.99492 | -6.02724 | 20496 ft | 301 kts | 166° |
| 2026-05-06 21:14 | 52.97436 | -6.01754 | 20624 ft | 312 kts | 166° |
| 2026-05-06 21:14 | 52.95322 | -6.00757 | 20814 ft | 320 kts | 166° |
| 2026-05-06 21:14 | 52.93159 | -5.99743 | 21021 ft | 326 kts | 166° |
| 2026-05-06 21:15 | 52.90961 | -5.98714 | 21246 ft | 330 kts | 166° |
| 2026-05-06 21:15 | 52.88734 | -5.97680 | 21487 ft | 334 kts | 166° |
| 2026-05-06 21:15 | 52.86491 | -5.96641 | 21731 ft | 336 kts | 166° |
| 2026-05-06 21:15 | 52.84225 | -5.95628 | 21975 ft | 338 kts | 166° |
| 2026-05-06 21:16 | 52.81945 | -5.94600 | 22231 ft | 340 kts | 166° |
| 2026-05-06 21:16 | 52.79660 | -5.93568 | 22488 ft | 342 kts | 165° |
| 2026-05-06 21:16 | 52.77359 | -5.92532 | 22757 ft | 342 kts | 166° |
| 2026-05-06 21:16 | 52.75048 | -5.91494 | 22926 ft | 347 kts | 165° |
| 2026-05-06 21:17 | 52.72693 | -5.90440 | 22977 ft | 355 kts | 165° |
| 2026-05-06 21:17 | 52.70281 | -5.89365 | 22992 ft | 364 kts | 165° |
| 2026-05-06 21:17 | 52.67804 | -5.88258 | 23001 ft | 373 kts | 165° |
| 2026-05-06 21:17 | 52.65272 | -5.87131 | 23007 ft | 381 kts | 165° |
| 2026-05-06 21:18 | 52.62684 | -5.85976 | 23012 ft | 390 kts | 165° |
| 2026-05-06 21:18 | 52.60036 | -5.84798 | 23009 ft | 398 kts | 165° |
| 2026-05-06 21:18 | 52.57335 | -5.83577 | 23010 ft | 407 kts | 165° |
| 2026-05-06 21:18 | 52.54581 | -5.82332 | 23010 ft | 415 kts | 165° |
| 2026-05-06 21:19 | 52.51772 | -5.81084 | 23013 ft | 421 kts | 165° |
| 2026-05-06 21:19 | 52.48956 | -5.79840 | 23006 ft | 415 kts | 165° |
| 2026-05-06 21:19 | 52.46200 | -5.78621 | 23000 ft | 406 kts | 165° |
| 2026-05-06 21:19 | 52.43465 | -5.77415 | 22995 ft | 408 kts | 165° |
| 2026-05-06 21:20 | 52.40715 | -5.76198 | 22998 ft | 410 kts | 165° |
| 2026-05-06 21:20 | 52.37964 | -5.74903 | 23000 ft | 413 kts | 164° |
| 2026-05-06 21:20 | 52.35201 | -5.73541 | 23000 ft | 415 kts | 163° |
| 2026-05-06 21:20 | 52.32437 | -5.72165 | 23002 ft | 417 kts | 163° |
| 2026-05-06 21:21 | 52.29657 | -5.70774 | 23003 ft | 419 kts | 163° |
| 2026-05-06 21:21 | 52.26858 | -5.69414 | 23004 ft | 421 kts | 164° |
| 2026-05-06 21:21 | 52.24058 | -5.67954 | 23007 ft | 423 kts | 161° |
| 2026-05-06 21:21 | 52.21300 | -5.66261 | 23008 ft | 425 kts | 159° |
| 2026-05-06 21:22 | 52.18552 | -5.64440 | 23008 ft | 428 kts | 158° |
| 2026-05-06 21:22 | 52.15815 | -5.62584 | 23005 ft | 422 kts | 158° |
| 2026-05-06 21:22 | 52.13134 | -5.60739 | 22995 ft | 414 kts | 158° |
| 2026-05-06 21:22 | 52.10514 | -5.58932 | 22993 ft | 405 kts | 158° |
| 2026-05-06 21:23 | 52.07937 | -5.57190 | 22992 ft | 397 kts | 157° |
| 2026-05-06 21:23 | 52.05571 | -5.54990 | 22989 ft | 388 kts | 142° |
| 2026-05-06 21:23 | 52.03611 | -5.52050 | 22992 ft | 380 kts | 133° |
| 2026-05-06 21:23 | 52.01909 | -5.48824 | 22991 ft | 372 kts | 128° |
| 2026-05-06 21:24 | 52.00388 | -5.45480 | 22989 ft | 365 kts | 125° |
| 2026-05-06 21:24 | 51.98982 | -5.42107 | 22991 ft | 357 kts | 123° |
| 2026-05-06 21:24 | 51.97644 | -5.38762 | 22986 ft | 350 kts | 123° |
| 2026-05-06 21:24 | 51.96348 | -5.35471 | 22986 ft | 342 kts | 122° |
| 2026-05-06 21:25 | 51.95087 | -5.32248 | 22986 ft | 335 kts | 122° |
| 2026-05-06 21:25 | 51.93848 | -5.29093 | 22984 ft | 329 kts | 123° |
| 2026-05-06 21:25 | 51.92620 | -5.26018 | 22980 ft | 322 kts | 123° |
| 2026-05-06 21:25 | 51.91638 | -5.22859 | 22988 ft | 315 kts | 108° |
| 2026-05-06 21:26 | 51.91042 | -5.19477 | 22992 ft | 309 kts | 103° |
| 2026-05-06 21:26 | 51.90572 | -5.16111 | 22990 ft | 304 kts | 102° |
| 2026-05-06 21:26 | 51.90165 | -5.12777 | 22992 ft | 302 kts | 100° |
| 2026-05-06 21:26 | 51.89789 | -5.09410 | 23005 ft | 309 kts | 99° |
| 2026-05-06 21:27 | 51.89412 | -5.05925 | 23019 ft | 317 kts | 99° |
| 2026-05-06 21:27 | 51.89015 | -5.02372 | 23038 ft | 325 kts | 100° |
| 2026-05-06 21:27 | 51.88602 | -4.98746 | 23034 ft | 331 kts | 100° |
| 2026-05-06 21:27 | 51.88178 | -4.95040 | 23033 ft | 338 kts | 100° |
| 2026-05-06 21:28 | 51.87746 | -4.91274 | 23038 ft | 344 kts | 100° |
| 2026-05-06 21:28 | 51.87305 | -4.87439 | 23039 ft | 351 kts | 100° |
| 2026-05-06 21:28 | 51.86835 | -4.83511 | 23029 ft | 359 kts | 101° |
| 2026-05-06 21:28 | 51.86344 | -4.79509 | 23031 ft | 367 kts | 101° |
| 2026-05-06 21:29 | 51.85845 | -4.75413 | 23026 ft | 375 kts | 101° |
| 2026-05-06 21:29 | 51.85354 | -4.71226 | 23025 ft | 383 kts | 101° |
| 2026-05-06 21:29 | 51.84838 | -4.66957 | 23029 ft | 391 kts | 101° |
| 2026-05-06 21:29 | 51.84299 | -4.62615 | 23024 ft | 398 kts | 101° |
| 2026-05-06 21:30 | 51.83764 | -4.58180 | 23041 ft | 405 kts | 101° |
| 2026-05-06 21:30 | 51.83236 | -4.53716 | 23052 ft | 397 kts | 101° |
| 2026-05-06 21:30 | 51.82708 | -4.49445 | 22994 ft | 378 kts | 101° |
| 2026-05-06 21:30 | 51.82197 | -4.45362 | 22875 ft | 364 kts | 101° |
| 2026-05-06 21:31 | 51.81706 | -4.41423 | 22697 ft | 352 kts | 101° |
| 2026-05-06 21:31 | 51.81244 | -4.37578 | 22344 ft | 346 kts | 101° |
| 2026-05-06 21:31 | 51.80776 | -4.33801 | 21951 ft | 341 kts | 101° |
| 2026-05-06 21:31 | 51.80311 | -4.30068 | 21570 ft | 337 kts | 101° |
| 2026-05-06 21:32 | 51.79904 | -4.26365 | 21196 ft | 333 kts | 98° |
| 2026-05-06 21:32 | 51.79372 | -4.19000 | 20472 ft | 327 kts | 96° |
| 2026-05-06 21:32 | 51.79145 | -4.15367 | 20115 ft | 324 kts | 96° |
| 2026-05-06 21:33 | 51.78916 | -4.11762 | 19765 ft | 321 kts | 96° |
| 2026-05-06 21:33 | 51.78676 | -4.08189 | 19420 ft | 319 kts | 96° |
| 2026-05-06 21:33 | 51.78437 | -4.04651 | 19080 ft | 316 kts | 96° |
| 2026-05-06 21:33 | 51.78197 | -4.01131 | 18740 ft | 314 kts | 96° |
| 2026-05-06 21:34 | 51.77954 | -3.97631 | 18408 ft | 312 kts | 97° |
| 2026-05-06 21:34 | 51.77695 | -3.94175 | 18178 ft | 306 kts | 97° |
| 2026-05-06 21:34 | 51.77439 | -3.90821 | 18061 ft | 296 kts | 97° |
| 2026-05-06 21:34 | 51.77190 | -3.87589 | 18013 ft | 285 kts | 97° |
| 2026-05-06 21:35 | 51.76959 | -3.84479 | 17986 ft | 273 kts | 97° |
| 2026-05-06 21:35 | 51.76750 | -3.81529 | 17971 ft | 263 kts | 97° |
| 2026-05-06 21:35 | 51.76549 | -3.78646 | 17921 ft | 255 kts | 97° |
| 2026-05-06 21:35 | 51.76343 | -3.75842 | 17806 ft | 250 kts | 97° |
| 2026-05-06 21:36 | 51.76126 | -3.73031 | 17502 ft | 254 kts | 97° |
| 2026-05-06 21:36 | 51.75903 | -3.70181 | 17212 ft | 257 kts | 97° |
| 2026-05-06 21:36 | 51.75692 | -3.67285 | 16818 ft | 264 kts | 97° |
| 2026-05-06 21:36 | 51.75476 | -3.64297 | 16391 ft | 271 kts | 97° |
| 2026-05-06 21:37 | 51.75241 | -3.61251 | 15971 ft | 276 kts | 97° |
| 2026-05-06 21:37 | 51.75010 | -3.58160 | 15562 ft | 280 kts | 97° |
| 2026-05-06 21:37 | 51.74781 | -3.55026 | 15169 ft | 283 kts | 97° |
| 2026-05-06 21:37 | 51.74564 | -3.51840 | 14764 ft | 286 kts | 96° |
| 2026-05-06 21:38 | 51.74360 | -3.48629 | 14366 ft | 289 kts | 96° |
| 2026-05-06 21:38 | 51.74161 | -3.45389 | 13998 ft | 291 kts | 96° |
| 2026-05-06 21:38 | 51.73966 | -3.42149 | 13695 ft | 289 kts | 96° |
| 2026-05-06 21:38 | 51.73838 | -3.40026 | 13457 ft | 284 kts | 96° |
| 2026-05-06 21:39 | 51.73645 | -3.36836 | 12804 ft | 286 kts | 96° |
| 2026-05-06 21:39 | 51.73449 | -3.33656 | 12282 ft | 283 kts | 96° |
| 2026-05-06 21:39 | 51.73255 | -3.30514 | 11752 ft | 282 kts | 96° |
| 2026-05-06 21:39 | 51.73059 | -3.27384 | 11262 ft | 279 kts | 96° |
| 2026-05-06 21:40 | 51.72864 | -3.24288 | 10784 ft | 276 kts | 96° |
| 2026-05-06 21:40 | 51.72493 | -3.21273 | 10280 ft | 274 kts | 114° |
| 2026-05-06 21:40 | 51.71326 | -3.18887 | 9852 ft | 272 kts | 141° |
| 2026-05-06 21:40 | 51.69831 | -3.17047 | 9389 ft | 271 kts | 143° |
| 2026-05-06 21:41 | 51.68320 | -3.15246 | 8967 ft | 269 kts | 144° |
| 2026-05-06 21:41 | 51.66777 | -3.13548 | 8560 ft | 267 kts | 148° |
| 2026-05-06 21:41 | 51.65244 | -3.11917 | 8181 ft | 266 kts | 144° |
| 2026-05-06 21:41 | 51.63778 | -3.10103 | 7873 ft | 264 kts | 141° |
| 2026-05-06 21:42 | 51.62383 | -3.08229 | 7662 ft | 262 kts | 138° |
| 2026-05-06 21:42 | 51.61138 | -3.06062 | 7446 ft | 261 kts | 129° |
| 2026-05-06 21:42 | 51.59975 | -3.03820 | 7242 ft | 260 kts | 132° |
| 2026-05-06 21:42 | 51.58745 | -3.01705 | 7026 ft | 259 kts | 134° |
| 2026-05-06 21:43 | 51.57530 | -2.99562 | 6780 ft | 260 kts | 131° |
| 2026-05-06 21:43 | 51.56392 | -2.97489 | 6492 ft | 234 kts | 132° |
| 2026-05-06 21:43 | 51.55339 | -2.95629 | 6064 ft | 218 kts | 133° |
| 2026-05-06 21:43 | 51.54344 | -2.93874 | 5635 ft | 207 kts | 133° |
| 2026-05-06 21:44 | 51.53398 | -2.92190 | 5226 ft | 199 kts | 133° |
| 2026-05-06 21:44 | 51.52481 | -2.90569 | 4812 ft | 193 kts | 132° |
| 2026-05-06 21:44 | 51.51593 | -2.88988 | 4408 ft | 189 kts | 132° |
| 2026-05-06 21:44 | 51.50714 | -2.87426 | 3986 ft | 191 kts | 132° |
| 2026-05-06 21:45 | 51.49776 | -2.85766 | 3608 ft | 209 kts | 132° |
| 2026-05-06 21:45 | 51.48823 | -2.84072 | 3314 ft | 219 kts | 132° |
| 2026-05-06 21:45 | 51.47797 | -2.82251 | 3167 ft | 221 kts | 132° |
| 2026-05-06 21:45 | 51.46768 | -2.80431 | 3084 ft | 219 kts | 132° |
| 2026-05-06 21:46 | 51.45756 | -2.78640 | 3039 ft | 215 kts | 131° |
| 2026-05-06 21:46 | 51.44756 | -2.76875 | 3032 ft | 212 kts | 131° |
| 2026-05-06 21:46 | 51.43782 | -2.75144 | 3012 ft | 208 kts | 131° |
| 2026-05-06 21:46 | 51.42817 | -2.73442 | 3001 ft | 204 kts | 132° |
| 2026-05-06 21:47 | 51.41860 | -2.71788 | 3001 ft | 201 kts | 133° |
| 2026-05-06 21:47 | 51.40910 | -2.70176 | 2995 ft | 197 kts | 133° |
| 2026-05-06 21:47 | 51.39971 | -2.68593 | 2998 ft | 195 kts | 133° |
| 2026-05-06 21:47 | 51.39047 | -2.67032 | 3002 ft | 192 kts | 133° |
| 2026-05-06 21:48 | 51.38132 | -2.65495 | 3008 ft | 189 kts | 133° |
| 2026-05-06 21:48 | 51.37245 | -2.63952 | 2997 ft | 188 kts | 125° |
| 2026-05-06 21:48 | 51.36908 | -2.62013 | 3006 ft | 185 kts | 80° |
| 2026-05-06 21:48 | 51.37541 | -2.60273 | 3026 ft | 187 kts | 38° |
| 2026-05-06 21:49 | 51.38750 | -2.59652 | 3044 ft | 191 kts | 356° |
| 2026-05-06 21:49 | 51.39954 | -2.60439 | 3062 ft | 192 kts | 319° |
| 2026-05-06 21:49 | 51.40927 | -2.61918 | 3052 ft | 195 kts | 316° |
| 2026-05-06 21:49 | 51.41907 | -2.63480 | 3049 ft | 197 kts | 312° |
| 2026-05-06 21:50 | 51.42507 | -2.65387 | 3053 ft | 197 kts | 277° |
| 2026-05-06 21:50 | 51.42616 | -2.67582 | 3038 ft | 199 kts | 273° |
| 2026-05-06 21:50 | 51.42691 | -2.69813 | 3041 ft | 202 kts | 271° |
| 2026-05-06 21:50 | 51.42742 | -2.72080 | 3035 ft | 204 kts | 270° |
| 2026-05-06 21:51 | 51.42775 | -2.74367 | 3023 ft | 206 kts | 270° |
| 2026-05-06 21:51 | 51.42801 | -2.76669 | 3023 ft | 207 kts | 270° |
| 2026-05-06 21:51 | 51.42823 | -2.78981 | 3024 ft | 208 kts | 270° |
| 2026-05-06 21:51 | 51.42838 | -2.81299 | 3024 ft | 208 kts | 269° |
| 2026-05-06 21:52 | 51.42857 | -2.83624 | 3019 ft | 209 kts | 270° |
| 2026-05-06 21:52 | 51.42876 | -2.85955 | 3006 ft | 209 kts | 270° |
| 2026-05-06 21:52 | 51.42891 | -2.88283 | 2999 ft | 209 kts | 270° |
| 2026-05-06 21:52 | 51.42910 | -2.90599 | 2999 ft | 207 kts | 270° |
| 2026-05-06 21:53 | 51.42966 | -2.92895 | 2995 ft | 206 kts | 279° |
| 2026-05-06 21:53 | 51.43285 | -2.95120 | 2999 ft | 204 kts | 277° |
| 2026-05-06 21:53 | 51.43014 | -2.97236 | 3036 ft | 190 kts | 232° |
| 2026-05-06 21:53 | 51.42008 | -2.98330 | 3082 ft | 168 kts | 188° |
| 2026-05-06 21:54 | 51.40976 | -2.97954 | 3073 ft | 147 kts | 139° |
| 2026-05-06 21:54 | 51.40573 | -2.96601 | 3041 ft | 133 kts | 98° |
| 2026-05-06 21:54 | 51.40465 | -2.95144 | 3018 ft | 131 kts | 98° |
| 2026-05-06 21:54 | 51.40337 | -2.93712 | 3009 ft | 129 kts | 98° |
| 2026-05-06 21:55 | 51.40202 | -2.92297 | 2994 ft | 127 kts | 106° |
| 2026-05-06 21:55 | 51.39918 | -2.90990 | 2996 ft | 123 kts | 107° |
| 2026-05-06 21:55 | 51.39686 | -2.89677 | 2991 ft | 122 kts | 105° |
| 2026-05-06 21:55 | 51.39474 | -2.88382 | 2985 ft | 119 kts | 105° |
| 2026-05-06 21:56 | 51.39261 | -2.87061 | 2875 ft | 126 kts | 105° |
| 2026-05-06 21:56 | 51.39041 | -2.85674 | 2760 ft | 128 kts | 104° |
| 2026-05-06 21:56 | 51.38829 | -2.84298 | 2593 ft | 129 kts | 105° |
| 2026-05-06 21:56 | 51.38605 | -2.82862 | 2277 ft | 136 kts | 105° |
| 2026-05-06 21:57 | 51.38372 | -2.81406 | 1912 ft | 133 kts | 105° |
| 2026-05-06 21:57 | 51.38151 | -2.79990 | 1476 ft | 129 kts | 102° |
| 2026-05-06 21:57 | 51.37988 | -2.78620 | 1127 ft | 121 kts | 99° |
| 2026-05-06 21:57 | 51.37978 | -2.77338 | 934 ft | 114 kts | 77° |
| 2026-05-06 21:58 | 51.38108 | -2.76123 | 869 ft | 112 kts | 89° |
| 2026-05-06 21:58 | 51.38149 | -2.74773 | 836 ft | 129 kts | 86° |
| 2026-05-06 21:58 | 51.38217 | -2.73341 | 671 ft | 128 kts | 88° |
| 2026-05-06 21:58 | 51.38269 | -2.72002 | 624 ft | 108 kts | 88° |
| 2026-05-06 21:59 | 51.38295 | -2.71225 | 616 ft | 35 kts | 88° |
| 2026-05-06 21:59 | 51.38306 | -2.70955 | 613 ft | 18 kts | 86° |
| 2026-05-06 21:59 | 51.38311 | -2.70821 | 611 ft | 6 kts | 86° |
| 2026-05-06 21:59 | 51.38321 | -2.70782 | 608 ft | 3 kts | 53° |
| 2026-05-06 22:00 | 51.38332 | -2.70768 | 608 ft | 3 kts | 26° |
| 2026-05-06 22:00 | 51.38358 | -2.70753 | 614 ft | 0 kts | 18° |
| 2026-05-06 22:00 | 51.38369 | -2.70747 | 620 ft | 7 kts | 19° |
| 2026-05-06 22:00 | 51.38429 | -2.70713 | 610 ft | 8 kts | 16° |
| 2026-05-06 22:01 | 51.38473 | -2.70770 | 614 ft | 11 kts | 274° |
| 2026-05-06 22:01 | 51.38467 | -2.70888 | 618 ft | 11 kts | 267° |
| 2026-05-06 22:01 | 51.38466 | -2.71004 | 614 ft | 6 kts | 270° |
| 2026-05-06 22:01 | 51.38472 | -2.71068 | 619 ft | 6 kts | 317° |
| 2026-05-06 22:02 | 51.38515 | -2.71078 | 611 ft | 3 kts | 357° |
| 2026-05-06 22:02 | 51.38526 | -2.71079 | 611 ft | 0 kts | 357° |